createdAt,value
2023-01-13T00:00:35.123Z,9.302913
2023-01-13T00:01:35.365Z,9.302736
2023-01-13T00:02:35.332Z,9.302828
2023-01-13T00:03:35.695Z,9.302706
2023-01-13T00:04:35.366Z,9.302880
2023-01-13T00:05:35.210Z,9.302829
2023-01-13T00:06:35.615Z,9.302902
2023-01-13T00:07:35.070Z,9.303007
2023-01-13T00:08:35.627Z,9.302885
2023-01-13T00:09:35.092Z,9.302807
2023-01-13T00:10:35.001Z,9.302950
2023-01-13T00:11:36.972Z,9.302915
2023-01-13T00:13:58.109Z,9.303070
2023-01-13T00:14:00.339Z,9.303070
2023-01-13T00:15:01.360Z,9.303081
2023-01-13T00:16:00.972Z,9.303009
2023-01-13T00:16:59.962Z,9.303189
2023-01-13T00:18:00.647Z,9.303039
2023-01-13T00:18:59.885Z,9.302913
2023-01-13T00:20:00.280Z,9.302997
2023-01-13T00:22:26.747Z,9.302905
2023-01-13T00:22:28.578Z,9.302905
2023-01-13T00:23:28.583Z,9.303013
2023-01-13T00:24:29.079Z,9.303156
2023-01-13T00:25:28.597Z,9.302869
2023-01-13T00:26:28.586Z,9.302952
2023-01-13T00:27:33.822Z,9.303125
2023-01-13T00:28:29.601Z,9.302982
2023-01-13T00:29:28.434Z,9.302705
2023-01-13T00:30:30.833Z,9.302865
2023-01-13T00:31:28.812Z,9.303034
2023-01-13T00:32:28.814Z,9.302955
2023-01-13T00:33:28.408Z,9.303008
2023-01-13T00:34:28.982Z,9.302990
2023-01-13T00:35:29.946Z,9.302970
2023-01-13T00:36:30.201Z,9.302994
2023-01-13T00:37:29.325Z,9.303013
2023-01-13T00:38:28.751Z,9.302983
2023-01-13T00:39:28.599Z,9.303070
2023-01-13T00:40:28.685Z,9.303008
2023-01-13T00:41:38.010Z,9.302951
2023-01-13T00:42:28.769Z,9.302990
2023-01-13T00:43:33.655Z,9.302998
2023-01-13T00:45:55.528Z,9.303028
2023-01-13T00:46:40.227Z,9.303028
2023-01-13T00:47:10.813Z,9.303179
2023-01-13T00:48:39.013Z,9.303179
2023-01-13T00:49:44.508Z,9.302934
2023-01-13T00:50:38.738Z,9.303041
2023-01-13T00:51:38.754Z,9.303128
2023-01-13T00:54:02.776Z,9.303004
2023-01-13T00:54:19.402Z,9.303004
2023-01-13T00:56:47.335Z,9.302937
2023-01-13T00:56:49.577Z,9.302937
2023-01-13T00:57:50.517Z,9.303001
2023-01-13T01:13:25.137Z,9.303566
2023-01-13T01:14:08.500Z,9.303566
2023-01-13T01:14:59.570Z,9.303566
2023-01-13T01:15:58.001Z,9.303566
2023-01-13T01:17:09.693Z,9.303566
2023-01-13T01:17:56.607Z,9.303566
2023-01-13T01:19:01.481Z,9.303544
2023-01-13T01:20:00.814Z,9.304365
2023-01-13T01:20:56.636Z,9.304365
2023-01-13T01:21:55.894Z,9.304365
2023-01-13T01:24:18.184Z,9.304365
2023-01-13T01:24:24.704Z,9.304365
2023-01-13T01:46:02.722Z,9.303136
2023-01-13T01:47:00.912Z,9.303336
2023-01-13T01:47:59.757Z,9.302992
2023-01-13T01:49:03.062Z,9.302841
2023-01-13T01:50:00.620Z,9.302556
2023-01-13T01:53:03.150Z,9.303673
2023-01-13T01:55:04.635Z,9.303673
2023-01-13T01:56:33.380Z,9.303673
2023-01-13T01:58:22.410Z,9.303673
2023-01-13T01:59:09.917Z,9.303117
2023-01-13T02:00:09.999Z,9.302880
2023-01-13T02:01:16.420Z,9.303114
2023-01-13T02:04:44.647Z,9.302927
2023-01-13T02:05:19.242Z,9.302927
2023-01-13T02:05:52.500Z,9.303254
2023-01-13T02:06:52.605Z,9.303257
2023-01-13T02:07:52.273Z,9.303069
2023-01-13T02:08:52.196Z,9.303111
2023-01-13T02:09:51.885Z,9.303121
2023-01-13T02:11:26.508Z,9.303059
2023-01-13T02:11:52.507Z,9.302876
2023-01-13T02:12:52.405Z,9.302798
2023-01-13T02:16:38.747Z,9.302826
2023-01-13T02:17:22.268Z,9.302839
2023-01-13T02:18:28.111Z,9.302667
2023-01-13T02:20:43.868Z,9.302795
2023-01-13T02:20:47.077Z,9.302795
2023-01-13T02:21:54.971Z,9.302896
2023-01-13T02:22:47.455Z,9.302885
2023-01-13T02:23:47.254Z,9.302658
2023-01-13T02:24:48.491Z,9.302709
2023-01-13T02:25:47.818Z,9.302851
2023-01-13T02:26:49.313Z,9.302910
2023-01-13T02:28:19.623Z,9.302878
2023-01-13T02:28:46.127Z,9.302828
2023-01-13T02:29:47.427Z,9.302788
2023-01-13T02:30:45.672Z,9.302924
2023-01-13T03:09:07.513Z,9.303113
2023-01-13T03:10:40.173Z,9.302943
2023-01-13T03:11:39.594Z,9.303020
2023-01-13T03:12:34.156Z,9.303001
2023-01-13T03:13:06.407Z,9.302928
2023-01-13T03:14:49.560Z,9.302887
2023-01-13T03:15:05.931Z,9.302979
2023-01-13T03:16:06.402Z,9.303164
2023-01-13T03:17:06.048Z,9.303128
2023-01-13T03:18:09.399Z,9.303142
2023-01-13T03:19:07.935Z,9.303222
2023-01-13T03:20:07.114Z,9.303256
2023-01-13T03:21:05.999Z,9.303255
2023-01-13T03:22:06.257Z,9.303215
2023-01-13T03:23:10.760Z,9.303346
2023-01-13T03:24:06.060Z,9.303478
2023-01-13T03:25:06.833Z,9.303411
2023-01-13T03:26:06.319Z,9.303272
2023-01-13T03:27:06.122Z,9.303216
2023-01-13T03:30:09.908Z,9.303185
2023-01-13T03:38:33.217Z,9.303390
2023-01-13T03:39:34.408Z,9.303275
2023-01-13T03:40:33.953Z,9.303281
2023-01-13T03:41:32.196Z,9.303293
2023-01-13T03:42:32.789Z,9.303211
2023-01-13T03:44:06.358Z,9.303181
2023-01-13T03:44:34.646Z,9.303134
2023-01-13T03:45:32.271Z,9.303099
2023-01-13T03:46:32.146Z,9.303082
2023-01-13T03:47:32.358Z,9.303124
2023-01-13T03:48:32.232Z,9.303095
2023-01-13T03:49:32.160Z,9.303101
2023-01-13T03:50:32.167Z,9.303146
2023-01-13T03:52:06.228Z,9.303166
2023-01-13T03:52:33.406Z,9.303144
2023-01-13T03:53:32.318Z,9.303147
2023-01-13T03:55:06.345Z,9.303123
2023-01-13T03:55:32.328Z,9.303102
2023-01-13T03:57:06.284Z,9.303146
2023-01-13T03:57:33.594Z,9.303192
2023-01-13T03:59:05.022Z,9.303202
2023-01-13T04:00:04.708Z,9.303237
2023-01-13T04:01:04.984Z,9.303248
2023-01-13T04:01:33.778Z,9.303361
2023-01-13T04:02:32.539Z,9.303304
2023-01-13T04:03:32.117Z,9.303300
2023-01-13T04:04:32.685Z,9.303176
2023-01-13T04:05:31.940Z,9.303180
2023-01-13T04:06:31.987Z,9.303040
2023-01-13T04:07:33.158Z,9.303319
2023-01-13T04:08:33.210Z,9.303247
2023-01-13T04:09:33.888Z,9.303128
2023-01-13T04:10:31.911Z,9.303092
2023-01-13T04:11:32.097Z,9.303079
2023-01-13T04:12:31.920Z,9.303186
2023-01-13T04:13:32.066Z,9.303295
2023-01-13T04:14:31.891Z,9.303170
2023-01-13T04:16:04.526Z,9.303000
2023-01-13T04:17:05.433Z,9.303161
2023-01-13T04:22:59.802Z,9.302871
2023-01-13T04:24:38.509Z,9.302813
2023-01-13T04:25:33.254Z,9.303538
2023-01-13T04:38:16.752Z,9.303301
2023-01-13T04:39:15.894Z,9.303141
2023-01-13T04:40:14.615Z,9.303512
2023-01-13T04:42:35.762Z,9.303306
2023-01-13T04:42:43.049Z,9.303306
2023-01-13T04:57:19.651Z,9.303181
2023-01-13T04:58:18.757Z,9.303106
2023-01-13T04:59:18.921Z,9.302884
2023-01-13T05:00:18.614Z,9.302767
2023-01-13T05:01:22.578Z,9.302704
2023-01-13T05:02:18.734Z,9.302875
2023-01-13T05:05:06.865Z,9.302586
2023-01-13T05:05:11.298Z,9.302586
2023-01-13T05:06:09.013Z,9.302687
2023-01-13T05:09:30.196Z,9.302814
2023-01-13T05:17:36.180Z,9.303238
2023-01-13T05:18:34.690Z,9.303305
2023-01-13T05:19:34.319Z,9.303288
2023-01-13T05:20:34.089Z,9.303294
2023-01-13T05:21:40.377Z,9.303238
2023-01-13T05:22:35.128Z,9.303288
2023-01-13T05:23:37.099Z,9.303245
2023-01-13T05:24:35.074Z,9.303251
2023-01-13T05:25:34.040Z,9.303287
2023-01-13T05:28:06.925Z,9.303660
2023-01-13T05:28:39.074Z,9.303660
2023-01-13T05:30:46.391Z,9.303252
2023-01-13T05:40:55.773Z,9.303260
2023-01-13T05:41:07.053Z,9.303309
2023-01-13T05:45:05.663Z,9.303230
2023-01-13T05:45:31.183Z,9.303362
2023-01-13T05:46:26.187Z,9.303237
2023-01-13T05:47:27.850Z,9.303265
2023-01-13T05:50:11.842Z,9.303136
2023-01-13T05:50:13.703Z,9.303136
2023-01-13T05:55:03.840Z,9.303161
2023-01-13T05:55:50.021Z,9.303249
2023-01-13T05:56:47.961Z,9.303191
2023-01-13T05:57:47.446Z,9.303041
2023-01-13T05:58:47.146Z,9.303066
2023-01-13T05:59:47.999Z,9.303152
2023-01-13T06:02:31.484Z,9.303032
2023-01-13T06:02:38.865Z,9.303032
2023-01-13T06:03:37.560Z,9.303090
2023-01-13T06:04:41.865Z,9.303091
2023-01-13T06:05:43.255Z,9.303004
2023-01-13T06:07:31.255Z,9.302922
2023-01-13T06:10:20.872Z,9.302922
2023-01-13T06:11:07.725Z,9.302922
2023-01-13T06:11:34.709Z,9.303059
2023-01-13T06:12:33.786Z,9.303057
2023-01-13T06:13:29.183Z,9.302935
2023-01-13T06:14:31.922Z,9.303070
2023-01-13T06:15:40.216Z,9.303091
2023-01-13T06:16:33.120Z,9.303073
2023-01-13T06:17:32.964Z,9.303106
2023-01-13T06:34:41.680Z,9.302989
2023-01-13T06:35:41.454Z,9.303225
2023-01-13T06:50:01.648Z,9.302886
2023-01-13T06:50:29.421Z,9.302806
2023-01-13T06:51:29.201Z,9.303074
2023-01-13T06:52:29.197Z,9.303049
2023-01-13T06:54:03.031Z,9.303072
2023-01-13T06:54:29.344Z,9.303159
2023-01-13T07:01:29.740Z,9.303641
2023-01-13T07:02:29.671Z,9.303421
2023-01-13T07:03:29.738Z,9.303586
2023-01-13T07:04:30.239Z,9.303477
2023-01-13T07:05:29.625Z,9.303392
2023-01-13T07:06:29.581Z,9.303332
2023-01-13T07:07:29.572Z,9.303502
2023-01-13T07:08:29.803Z,9.303129
2023-01-13T07:09:29.554Z,9.303097
2023-01-13T07:10:29.644Z,9.303184
2023-01-13T07:11:30.282Z,9.303027
2023-01-13T07:12:29.512Z,9.303089
2023-01-13T07:13:29.628Z,9.303130
2023-01-13T07:14:29.511Z,9.303065
2023-01-13T07:15:29.452Z,9.303223
2023-01-13T07:16:29.528Z,9.303066
2023-01-13T07:17:29.440Z,9.303060
2023-01-13T07:18:30.211Z,9.303075
2023-01-13T07:19:29.470Z,9.302984
2023-01-13T07:20:29.412Z,9.302997
2023-01-13T07:21:29.398Z,9.303067
2023-01-13T07:22:32.054Z,9.303077
2023-01-13T07:23:29.372Z,9.303028
2023-01-13T07:24:29.426Z,9.302977
2023-01-13T07:25:29.369Z,9.303011
2023-01-13T07:26:29.330Z,9.302999
2023-01-13T07:27:29.337Z,9.303106
2023-01-13T07:28:29.377Z,9.302967
2023-01-13T07:29:30.089Z,9.303017
2023-01-13T07:30:29.359Z,9.303006
2023-01-13T07:31:29.364Z,9.303115
2023-01-13T07:32:29.266Z,9.303068
2023-01-13T07:33:29.268Z,9.302999
2023-01-13T07:34:29.476Z,9.302984
2023-01-13T07:35:29.326Z,9.302958
2023-01-13T07:36:29.271Z,9.302969
2023-01-13T07:37:29.253Z,9.303064
2023-01-13T07:38:29.229Z,9.303105
2023-01-13T07:39:29.346Z,9.303022
2023-01-13T07:40:29.232Z,9.303033
2023-01-13T07:41:29.278Z,9.302976
2023-01-13T07:42:29.141Z,9.302966
2023-01-13T07:43:29.450Z,9.302953
2023-01-13T07:44:29.183Z,9.303067
2023-01-13T07:45:29.197Z,9.303061
2023-01-13T07:46:29.148Z,9.303005
2023-01-13T07:47:29.148Z,9.302963
2023-01-13T07:48:29.094Z,9.302940
2023-01-13T07:49:29.176Z,9.303060
2023-01-13T07:50:30.048Z,9.303010
2023-01-13T07:51:29.073Z,9.303020
2023-01-13T07:52:29.120Z,9.303100
2023-01-13T07:53:29.099Z,9.302958
2023-01-13T07:54:40.036Z,9.303020
2023-01-13T07:55:31.071Z,9.302810
2023-01-13T07:56:29.008Z,9.302863
2023-01-13T07:57:29.108Z,9.302973
2023-01-13T07:58:29.050Z,9.303019
2023-01-13T07:59:29.214Z,9.303028
2023-01-13T08:00:29.003Z,9.302993
2023-01-13T08:01:29.170Z,9.303034
2023-01-13T08:02:29.895Z,9.303043
2023-01-13T08:03:28.986Z,9.303038
2023-01-13T08:04:28.957Z,9.303076
2023-01-13T08:05:29.060Z,9.303111
2023-01-13T08:06:29.001Z,9.303016
2023-01-13T08:07:28.958Z,9.303094
2023-01-13T08:08:28.923Z,9.303038
2023-01-13T08:09:28.988Z,9.303051
2023-01-13T08:10:28.918Z,9.303063
2023-01-13T08:11:28.956Z,9.303056
2023-01-13T08:12:28.891Z,9.303145
2023-01-13T08:13:28.862Z,9.303116
2023-01-13T08:14:28.901Z,9.303127
2023-01-13T08:15:28.900Z,9.303068
2023-01-13T08:16:28.872Z,9.303148
2023-01-13T08:17:28.828Z,9.302955
2023-01-13T08:18:28.888Z,9.303027
2023-01-13T08:19:28.845Z,9.303064
2023-01-13T08:20:28.796Z,9.303084
2023-01-13T08:21:28.817Z,9.303000
2023-01-13T08:22:29.440Z,9.302981
2023-01-13T08:23:28.792Z,9.303088
2023-01-13T08:24:28.751Z,9.303099
2023-01-13T08:25:28.703Z,9.303054
2023-01-13T08:26:28.724Z,9.303029
2023-01-13T08:27:28.726Z,9.303106
2023-01-13T08:28:28.709Z,9.302918
2023-01-13T08:29:28.827Z,9.302991
2023-01-13T08:30:28.790Z,9.302960
2023-01-13T08:31:28.682Z,9.302946
2023-01-13T08:32:28.664Z,9.303026
2023-01-13T08:33:28.677Z,9.303008
2023-01-13T08:34:28.779Z,9.302832
2023-01-13T08:35:28.682Z,9.302968
2023-01-13T08:36:28.652Z,9.303020
2023-01-13T08:37:28.648Z,9.302971
2023-01-13T08:38:28.620Z,9.303023
2023-01-13T08:39:28.640Z,9.303025
2023-01-13T08:40:28.583Z,9.302966
2023-01-13T08:41:28.602Z,9.303020
2023-01-13T08:42:28.602Z,9.303026
2023-01-13T08:43:28.654Z,9.303042
2023-01-13T08:44:28.592Z,9.302974
2023-01-13T08:45:28.583Z,9.302931
2023-01-13T08:46:28.587Z,9.302969
2023-01-13T08:47:28.619Z,9.303012
2023-01-13T08:48:31.220Z,9.303065
2023-01-13T08:49:29.592Z,9.303018
2023-01-13T08:50:28.515Z,9.303051
2023-01-13T08:51:28.507Z,9.303049
2023-01-13T08:52:28.567Z,9.302943
2023-01-13T08:53:28.491Z,9.302940
2023-01-13T08:54:28.502Z,9.302968
2023-01-13T08:55:28.530Z,9.303037
2023-01-13T08:56:28.491Z,9.302997
2023-01-13T08:57:28.596Z,9.303043
2023-01-13T08:58:28.468Z,9.303013
2023-01-13T08:59:28.440Z,9.303045
2023-01-13T09:00:28.415Z,9.303041
2023-01-13T09:01:28.539Z,9.303050
2023-01-13T09:02:28.440Z,9.303047
2023-01-13T09:03:28.363Z,9.302992
2023-01-13T09:04:29.733Z,9.302909
2023-01-13T09:05:28.368Z,9.302980
2023-01-13T09:06:28.438Z,9.302877
2023-01-13T09:07:28.539Z,9.302884
2023-01-13T09:08:28.348Z,9.303142
2023-01-13T09:09:28.430Z,9.303003
2023-01-13T09:10:28.352Z,9.302995
2023-01-13T09:11:28.460Z,9.303022
2023-01-13T09:12:28.331Z,9.303057
2023-01-13T09:13:29.053Z,9.303108
2023-01-13T09:14:28.262Z,9.302867
2023-01-13T09:15:28.363Z,9.302788
2023-01-13T09:16:28.269Z,9.302950
2023-01-13T09:17:28.244Z,9.302936
2023-01-13T09:18:28.408Z,9.302657
2023-01-13T09:19:28.266Z,9.302754
2023-01-13T09:20:28.216Z,9.302972
2023-01-13T09:21:28.266Z,9.303003
2023-01-13T09:22:28.223Z,9.302886
2023-01-13T09:23:28.198Z,9.302922
2023-01-13T09:24:28.347Z,9.303084
2023-01-13T09:25:28.174Z,9.303126
2023-01-13T09:26:28.395Z,9.302998
2023-01-13T09:27:28.135Z,9.303092
2023-01-13T09:28:28.153Z,9.303065
2023-01-13T09:29:28.224Z,9.303036
2023-01-13T09:30:28.179Z,9.303027
2023-01-13T09:31:28.153Z,9.303076
2023-01-13T09:32:28.109Z,9.303047
2023-01-13T09:33:28.095Z,9.303365
2023-01-13T09:34:28.144Z,9.302915
2023-01-13T09:35:29.043Z,9.302775
2023-01-13T09:36:28.157Z,9.302910
2023-01-13T09:37:28.053Z,9.302833
2023-01-13T09:38:28.092Z,9.302855
2023-01-13T09:39:28.038Z,9.303085
2023-01-13T09:40:28.088Z,9.303246
2023-01-13T09:41:28.078Z,9.303289
2023-01-13T09:42:28.050Z,9.303309
2023-01-13T09:43:28.016Z,9.303143
2023-01-13T09:44:28.059Z,9.303027
2023-01-13T09:45:27.972Z,9.303032
2023-01-13T09:47:00.604Z,9.303029
2023-01-13T09:47:28.942Z,9.302810
2023-01-13T09:48:27.942Z,9.303024
2023-01-13T09:49:27.964Z,9.302820
2023-01-13T09:50:27.987Z,9.302794
2023-01-13T09:51:28.511Z,9.302931
2023-01-13T09:52:27.906Z,9.302812
2023-01-13T09:53:27.961Z,9.302793
2023-01-13T09:54:27.950Z,9.302771
2023-01-13T09:55:27.890Z,9.302686
2023-01-13T09:56:27.854Z,9.302938
2023-01-13T09:57:27.839Z,9.302983
2023-01-13T09:58:27.843Z,9.302917
2023-01-13T09:59:28.022Z,9.303028
2023-01-13T10:01:00.384Z,9.303006
2023-01-13T10:01:27.957Z,9.303114
2023-01-13T10:02:28.174Z,9.303065
2023-01-13T10:03:28.779Z,9.303049
2023-01-13T10:04:27.859Z,9.302977
2023-01-13T10:05:27.799Z,9.303008
2023-01-13T10:06:27.739Z,9.302966
2023-01-13T10:07:27.862Z,9.302821
2023-01-13T10:08:27.758Z,9.302831
2023-01-13T10:09:27.762Z,9.302998
2023-01-13T10:12:30.733Z,9.303169
2023-01-13T10:13:30.879Z,9.302907
2023-01-13T10:14:31.100Z,9.302846
2023-01-13T10:15:33.461Z,9.302979
2023-01-13T10:16:32.742Z,9.302933
2023-01-13T10:17:33.880Z,9.302883
2023-01-13T10:18:33.072Z,9.302888
2023-01-13T10:19:35.929Z,9.302630
2023-01-13T10:20:30.794Z,9.302916
2023-01-13T10:21:30.921Z,9.302876
2023-01-13T10:22:30.470Z,9.302919
2023-01-13T10:23:30.682Z,9.302938
2023-01-13T10:24:30.431Z,9.302996
2023-01-13T10:25:30.552Z,9.302941
2023-01-13T10:26:30.472Z,9.302804
2023-01-13T10:27:31.664Z,9.303212
2023-01-13T10:28:30.425Z,9.303205
2023-01-13T10:29:30.518Z,9.303142
2023-01-13T10:30:32.448Z,9.303155
2023-01-13T10:31:30.425Z,9.303126
2023-01-13T10:32:30.587Z,9.303034
2023-01-13T10:33:30.391Z,9.303049
2023-01-13T10:34:31.650Z,9.302985
2023-01-13T10:35:30.800Z,9.303068
2023-01-13T10:36:34.491Z,9.303065
2023-01-13T10:37:31.406Z,9.303069
2023-01-13T10:38:30.359Z,9.303082
2023-01-13T10:39:30.474Z,9.303121
2023-01-13T10:40:30.951Z,9.303116
2023-01-13T10:41:30.680Z,9.303098
2023-01-13T10:42:30.288Z,9.303072
2023-01-13T10:43:32.486Z,9.302939
2023-01-13T10:44:30.845Z,9.302955
2023-01-13T10:45:30.249Z,9.303093
2023-01-13T10:46:30.678Z,9.303035
2023-01-13T10:47:30.450Z,9.302990
2023-01-13T10:48:31.083Z,9.303021
2023-01-13T10:49:31.934Z,9.302994
2023-01-13T10:50:30.605Z,9.303053
2023-01-13T10:51:30.695Z,9.303116
2023-01-13T10:52:30.496Z,9.303102
2023-01-13T10:53:30.575Z,9.303199
2023-01-13T10:54:30.271Z,9.303127
2023-01-13T10:55:31.094Z,9.303069
2023-01-13T10:56:31.065Z,9.303084
2023-01-13T10:57:31.338Z,9.303117
2023-01-13T10:58:30.417Z,9.303025
2023-01-13T10:59:30.091Z,9.302950
2023-01-13T11:00:31.219Z,9.302981
2023-01-13T11:01:30.721Z,9.302928
2023-01-13T11:02:30.894Z,9.302942
2023-01-13T11:03:32.978Z,9.302938
2023-01-13T11:04:30.118Z,9.302993
2023-01-13T11:05:30.493Z,9.302990
2023-01-13T11:06:30.335Z,9.303062
2023-01-13T11:07:30.080Z,9.303187
2023-01-13T11:08:30.141Z,9.302988
2023-01-13T11:09:29.956Z,9.303035
2023-01-13T11:10:30.210Z,9.302955
2023-01-13T11:11:29.994Z,9.303047
2023-01-13T11:12:30.361Z,9.303074
2023-01-13T11:13:29.958Z,9.303059
2023-01-13T11:14:30.307Z,9.303132
2023-01-13T11:15:30.139Z,9.303132
2023-01-13T11:16:30.350Z,9.303123
2023-01-13T11:17:30.153Z,9.303133
2023-01-13T11:18:30.006Z,9.303100
2023-01-13T11:19:30.039Z,9.303050
2023-01-13T11:20:29.966Z,9.303082
2023-01-13T11:21:30.195Z,9.303025
2023-01-13T11:22:29.890Z,9.303071
2023-01-13T11:23:29.926Z,9.302922
2023-01-13T11:25:55.241Z,9.303073
2023-01-13T11:25:56.946Z,9.303073
2023-01-13T11:26:56.960Z,9.302915
2023-01-13T11:27:56.874Z,9.302981
2023-01-13T11:28:57.892Z,9.303060
2023-01-13T11:29:57.039Z,9.302989
2023-01-13T11:30:56.884Z,9.303011
2023-01-13T11:31:56.839Z,9.302906
2023-01-13T11:33:02.894Z,9.302912
2023-01-13T11:33:57.922Z,9.302951
2023-01-13T11:34:58.932Z,9.302918
2023-01-13T11:35:56.819Z,9.302991
2023-01-13T11:36:56.737Z,9.302953
2023-01-13T11:37:56.819Z,9.302954
2023-01-13T11:38:56.755Z,9.302965
2023-01-13T11:39:56.774Z,9.302990
2023-01-13T11:40:56.753Z,9.302869
2023-01-13T11:41:56.723Z,9.302936
2023-01-13T11:42:56.750Z,9.302902
2023-01-13T11:43:56.750Z,9.303004
2023-01-13T11:44:56.943Z,9.303106
2023-01-13T11:45:56.860Z,9.302965
2023-01-13T11:46:57.139Z,9.302953
2023-01-13T11:47:56.980Z,9.302987
2023-01-13T11:48:56.960Z,9.302977
2023-01-13T11:49:56.701Z,9.302869
2023-01-13T11:50:56.694Z,9.302920
2023-01-13T11:51:56.894Z,9.302898
2023-01-13T11:52:59.640Z,9.302985
2023-01-13T11:53:56.785Z,9.302912
2023-01-13T11:54:57.681Z,9.302936
2023-01-13T11:55:57.020Z,9.302982
2023-01-13T11:56:57.840Z,9.303103
2023-01-13T11:57:56.617Z,9.303035
2023-01-13T11:58:56.505Z,9.303050
2023-01-13T11:59:56.569Z,9.302978
2023-01-13T12:00:56.639Z,9.302973
2023-01-13T12:01:56.647Z,9.302908
2023-01-13T12:02:56.531Z,9.302985
2023-01-13T12:03:56.811Z,9.302957
2023-01-13T12:04:56.745Z,9.303070
2023-01-13T12:05:56.701Z,9.302982
2023-01-13T12:06:57.407Z,9.302903
2023-01-13T12:07:57.019Z,9.302845
2023-01-13T12:08:57.419Z,9.302895
2023-01-13T12:09:56.572Z,9.302964
2023-01-13T12:10:56.673Z,9.302918
2023-01-13T12:11:56.519Z,9.303052
2023-01-13T12:12:57.852Z,9.303080
2023-01-13T12:13:56.398Z,9.303063
2023-01-13T12:14:56.493Z,9.303000
2023-01-13T12:15:56.415Z,9.303033
2023-01-13T12:16:56.476Z,9.303123
2023-01-13T12:17:56.384Z,9.303036
2023-01-13T12:18:56.824Z,9.303129
2023-01-13T12:19:56.735Z,9.303027
2023-01-13T12:20:56.818Z,9.303062
2023-01-13T12:21:56.388Z,9.303032
2023-01-13T12:22:56.386Z,9.303054
2023-01-13T12:23:58.939Z,9.302921
2023-01-13T12:24:56.350Z,9.302968
2023-01-13T12:25:56.466Z,9.303077
2023-01-13T12:26:56.282Z,9.303083
2023-01-13T12:27:57.025Z,9.303052
2023-01-13T12:29:56.755Z,9.303041
2023-01-13T12:30:02.493Z,9.303041
2023-01-13T12:31:01.729Z,9.303061
2023-01-13T12:32:02.148Z,9.303019
2023-01-13T12:33:02.364Z,9.303147
2023-01-13T12:34:02.084Z,9.303040
2023-01-13T12:35:01.717Z,9.303050
2023-01-13T12:36:01.973Z,9.303058
2023-01-13T12:37:02.066Z,9.303097
2023-01-13T12:38:02.135Z,9.303115
2023-01-13T12:39:01.664Z,9.302941
2023-01-13T12:40:01.787Z,9.303139
2023-01-13T12:41:03.504Z,9.303076
2023-01-13T12:42:06.230Z,9.303051
2023-01-13T12:43:02.620Z,9.303085
2023-01-13T12:44:01.599Z,9.303323
2023-01-13T12:46:26.394Z,9.303057
2023-01-13T12:46:28.173Z,9.303057
2023-01-13T12:47:28.145Z,9.302971
2023-01-13T12:48:54.163Z,9.303175
2023-01-13T12:49:28.849Z,9.302825
2023-01-13T12:50:27.958Z,9.303185
2023-01-13T12:51:28.044Z,9.302953
2023-01-13T12:52:28.029Z,9.303008
2023-01-13T12:53:28.479Z,9.303069
2023-01-13T12:54:28.148Z,9.302870
2023-01-13T12:55:28.072Z,9.302954
2023-01-13T12:56:27.994Z,9.302881
2023-01-13T12:57:27.875Z,9.302735
2023-01-13T12:58:27.913Z,9.302990
2023-01-13T12:59:27.861Z,9.303111
2023-01-13T13:00:27.850Z,9.303147
2023-01-13T13:01:28.250Z,9.303013
2023-01-13T13:02:27.861Z,9.303179
2023-01-13T13:03:27.829Z,9.303214
2023-01-13T13:04:27.874Z,9.303110
2023-01-13T13:05:31.528Z,9.303055
2023-01-13T13:06:27.869Z,9.303116
2023-01-13T13:07:27.900Z,9.303068
2023-01-13T13:08:27.924Z,9.303041
2023-01-13T13:09:27.980Z,9.302954
2023-01-13T13:10:27.887Z,9.302982
2023-01-13T13:11:27.808Z,9.302969
2023-01-13T13:12:27.773Z,9.302995
2023-01-13T13:13:28.212Z,9.303086
2023-01-13T13:14:29.345Z,9.303003
2023-01-13T13:15:31.523Z,9.302996
2023-01-13T13:16:27.891Z,9.302943
2023-01-13T13:17:27.959Z,9.302926
2023-01-13T13:18:27.812Z,9.302921
2023-01-13T13:21:33.108Z,9.302915
2023-01-13T13:21:40.796Z,9.302915
2023-01-13T13:22:39.773Z,9.303070
2023-01-13T13:23:39.417Z,9.303037
2023-01-13T13:24:39.515Z,9.303036
2023-01-13T13:25:40.887Z,9.302979
2023-01-13T13:26:39.448Z,9.302995
2023-01-13T13:27:39.885Z,9.302971
2023-01-13T13:28:39.199Z,9.303033
2023-01-13T13:31:07.252Z,9.303015
2023-01-13T13:31:09.240Z,9.303015
2023-01-13T13:32:09.924Z,9.303026
2023-01-13T13:33:09.372Z,9.302999
2023-01-13T13:34:08.981Z,9.302973
2023-01-13T13:35:08.900Z,9.302952
2023-01-13T13:36:08.869Z,9.302803
2023-01-13T13:37:09.766Z,9.302925
2023-01-13T13:38:08.813Z,9.302793
2023-01-13T13:39:08.802Z,9.302943
2023-01-13T13:40:09.068Z,9.303134
2023-01-13T13:41:09.232Z,9.303100
2023-01-13T13:42:08.791Z,9.303156
2023-01-13T13:43:09.561Z,9.303028
2023-01-13T13:44:08.823Z,9.303222
2023-01-13T13:45:10.611Z,9.303180
2023-01-13T13:46:09.453Z,9.303163
2023-01-13T13:47:10.586Z,9.303199
2023-01-13T13:48:08.792Z,9.303087
2023-01-13T13:49:12.468Z,9.303104
2023-01-13T13:50:09.335Z,9.303086
2023-01-13T13:51:08.780Z,9.303024
2023-01-13T13:52:08.954Z,9.303008
2023-01-13T13:53:08.712Z,9.303084
2023-01-13T13:54:09.958Z,9.303045
2023-01-13T13:55:08.629Z,9.303061
2023-01-13T13:56:08.950Z,9.303085
2023-01-13T13:57:09.644Z,9.303048
2023-01-13T13:58:08.695Z,9.302994
2023-01-13T13:59:08.645Z,9.303055
2023-01-13T14:00:08.650Z,9.303020
2023-01-13T14:01:08.687Z,9.302954
2023-01-13T14:02:14.158Z,9.302817
2023-01-13T14:03:08.832Z,9.302928
2023-01-13T14:04:10.168Z,9.302899
2023-01-13T14:05:11.153Z,9.303015
2023-01-13T14:06:09.116Z,9.303055
2023-01-13T14:07:11.396Z,9.303101
2023-01-13T14:08:12.481Z,9.303038
2023-01-13T14:09:09.445Z,9.302897
2023-01-13T14:10:09.320Z,9.303005
2023-01-13T14:11:08.547Z,9.302997
2023-01-13T14:12:08.534Z,9.303032
2023-01-13T14:13:08.730Z,9.302845
2023-01-13T14:15:31.087Z,9.302866
2023-01-13T14:15:32.877Z,9.302866
2023-01-13T14:16:32.720Z,9.302765
2023-01-13T14:17:33.594Z,9.302908
2023-01-13T14:18:32.945Z,9.302893
2023-01-13T14:19:33.213Z,9.302873
2023-01-13T14:20:32.762Z,9.303098
2023-01-13T14:21:32.803Z,9.303098
2023-01-13T14:22:32.692Z,9.302827
2023-01-13T14:23:35.406Z,9.302958
2023-01-13T14:24:33.563Z,9.302932
2023-01-13T14:25:33.273Z,9.302921
2023-01-13T14:26:37.215Z,9.303042
2023-01-13T14:27:34.881Z,9.303101
2023-01-13T14:28:32.561Z,9.303062
2023-01-13T14:29:32.706Z,9.302997
2023-01-13T14:30:32.580Z,9.303051
2023-01-13T14:31:33.397Z,9.302850
2023-01-13T14:32:32.753Z,9.302856
2023-01-13T14:34:57.549Z,9.302835
2023-01-13T14:34:59.169Z,9.302835
2023-01-13T14:35:59.553Z,9.302873
2023-01-13T14:36:59.646Z,9.303020
2023-01-13T14:37:59.119Z,9.303060
2023-01-13T14:38:59.199Z,9.303080
2023-01-13T14:39:59.088Z,9.302915
2023-01-13T14:41:00.044Z,9.302673
2023-01-13T14:41:59.300Z,9.302814
2023-01-13T14:43:00.158Z,9.302895
2023-01-13T14:43:59.375Z,9.303099
2023-01-13T14:44:59.101Z,9.303027
2023-01-13T14:46:00.241Z,9.303056
2023-01-13T14:46:59.363Z,9.303095
2023-01-13T14:48:00.911Z,9.303022
2023-01-13T14:49:05.139Z,9.303048
2023-01-13T14:50:01.145Z,9.303153
2023-01-13T14:53:03.113Z,9.303162
2023-01-13T14:53:06.577Z,9.303162
2023-01-13T14:54:06.659Z,9.303140
2023-01-13T14:55:05.840Z,9.302974
2023-01-13T14:56:04.754Z,9.303091
2023-01-13T14:57:04.874Z,9.303129
2023-01-13T14:58:05.057Z,9.303140
2023-01-13T14:59:04.700Z,9.303056
2023-01-13T15:00:06.706Z,9.303081
2023-01-13T15:01:07.883Z,9.303108
2023-01-13T15:02:04.873Z,9.303075